createdAt,value
2017-11-18T00:00:04.661Z,21.7
2017-11-18T00:02:05.380Z,21.7
2017-11-18T00:04:07.653Z,21.8
2017-11-18T00:06:12.935Z,21.7
2017-11-18T00:08:09.726Z,21.7
2017-11-18T00:10:13.048Z,21.7
2017-11-18T00:12:04.806Z,21.7
2017-11-18T00:14:10.821Z,21.7
2017-11-18T00:16:05.676Z,21.7
2017-11-18T00:18:05.634Z,21.7
2017-11-18T00:20:04.915Z,21.7
2017-11-18T00:22:10.698Z,21.7
2017-11-18T00:24:05.453Z,21.7
2017-11-18T00:26:07.743Z,21.7
2017-11-18T00:28:08.061Z,21.7
2017-11-18T00:30:04.787Z,21.7
2017-11-18T00:32:05.610Z,21.7
2017-11-18T00:34:05.399Z,21.7
2017-11-18T00:36:05.134Z,21.7
2017-11-18T00:38:09.919Z,21.7
2017-11-18T00:40:12.373Z,21.7
2017-11-18T00:42:05.072Z,21.7
2017-11-18T00:44:07.297Z,21.7
2017-11-18T00:46:05.542Z,21.7
2017-11-18T00:48:05.299Z,21.7
2017-11-18T00:50:05.087Z,21.7
2017-11-18T00:52:09.917Z,21.7
2017-11-18T00:54:05.640Z,21.7
2017-11-18T00:56:07.426Z,21.7
2017-11-18T00:58:05.224Z,21.7
2017-11-18T01:00:04.980Z,21.7
2017-11-18T01:02:05.252Z,21.7
2017-11-18T01:04:05.031Z,21.7
2017-11-18T01:06:04.847Z,21.7
2017-11-18T01:08:05.088Z,21.7
2017-11-18T01:10:04.936Z,21.7
2017-11-18T01:12:10.247Z,21.7
2017-11-18T01:14:05.459Z,21.7
2017-11-18T01:16:05.223Z,21.7
2017-11-18T01:18:04.689Z,21.7
2017-11-18T01:20:10.528Z,21.7
2017-11-18T01:22:05.277Z,21.7
2017-11-18T01:24:05.002Z,21.7
2017-11-18T01:26:04.821Z,21.7
2017-11-18T01:28:05.646Z,21.7
2017-11-18T01:30:10.087Z,21.7
2017-11-18T01:32:07.394Z,21.7
2017-11-18T01:34:05.201Z,21.6
2017-11-18T01:36:05.529Z,21.7
2017-11-18T01:38:04.794Z,21.7
2017-11-18T01:40:05.585Z,21.7
2017-11-18T01:42:05.301Z,21.6
2017-11-18T01:44:05.038Z,21.7
2017-11-18T01:46:12.379Z,21.7
2017-11-18T01:48:05.161Z,21.6
2017-11-18T01:50:04.881Z,21.7
2017-11-18T01:52:05.675Z,21.7
2017-11-18T01:54:05.376Z,21.6
2017-11-18T01:56:05.279Z,21.7
2017-11-18T01:58:05.067Z,21.6
2017-11-18T02:00:04.804Z,21.7
2017-11-18T02:02:05.149Z,21.6
2017-11-18T02:04:04.936Z,21.6
2017-11-18T02:06:04.883Z,21.6
2017-11-18T02:08:05.181Z,21.6
2017-11-18T02:10:05.518Z,21.6
2017-11-18T02:12:05.241Z,21.6
2017-11-18T02:14:05.005Z,21.6
2017-11-18T02:16:04.717Z,21.6
2017-11-18T02:18:09.753Z,21.6
2017-11-18T02:20:10.538Z,21.6
2017-11-18T02:22:07.837Z,21.6
2017-11-18T02:24:05.575Z,21.6
2017-11-18T02:26:04.818Z,21.6
2017-11-18T02:28:05.170Z,21.6
2017-11-18T02:30:04.910Z,21.6
2017-11-18T02:32:07.199Z,21.6
2017-11-18T02:34:04.946Z,21.6
2017-11-18T02:36:09.751Z,21.6
2017-11-18T02:38:08.016Z,21.6
2017-11-18T02:40:04.797Z,21.6
2017-11-18T02:42:05.035Z,21.6
2017-11-18T02:44:07.417Z,21.6
2017-11-18T02:46:04.724Z,21.6
2017-11-18T02:48:05.519Z,21.6
2017-11-18T02:50:05.304Z,21.6
2017-11-18T02:52:07.210Z,21.6
2017-11-18T02:54:05.587Z,21.6
2017-11-18T02:56:04.858Z,21.6
2017-11-18T02:58:05.703Z,21.6
2017-11-18T03:00:07.573Z,21.6
2017-11-18T03:02:05.445Z,21.6
2017-11-18T03:04:05.309Z,21.6
2017-11-18T03:06:10.181Z,21.6
2017-11-18T03:08:09.956Z,21.6
2017-11-18T03:10:12.883Z,21.6
2017-11-18T03:12:05.221Z,21.6
2017-11-18T03:14:05.469Z,21.6
2017-11-18T03:16:05.224Z,21.6
2017-11-18T03:18:05.168Z,21.6
2017-11-18T03:20:04.894Z,21.6
2017-11-18T03:22:05.639Z,21.6
2017-11-18T03:24:07.989Z,21.6
2017-11-18T03:26:07.251Z,21.6
2017-11-18T03:28:04.952Z,21.6
2017-11-18T03:30:04.702Z,21.6
2017-11-18T03:32:15.575Z,21.6
2017-11-18T03:34:05.456Z,21.6
2017-11-18T03:36:05.187Z,21.6
2017-11-18T03:38:04.957Z,21.6
2017-11-18T03:40:05.241Z,21.6
2017-11-18T03:42:05.001Z,21.6
2017-11-18T03:44:17.408Z,21.6
2017-11-18T03:46:05.171Z,21.6
2017-11-18T03:48:04.888Z,21.6
2017-11-18T03:50:05.157Z,21.6
2017-11-18T03:52:07.423Z,21.5
2017-11-18T03:54:05.277Z,21.6
2017-11-18T03:56:05.008Z,21.6
2017-11-18T03:58:04.759Z,21.6
2017-11-18T04:00:05.459Z,21.6
2017-11-18T04:02:05.260Z,21.6
2017-11-18T04:04:07.577Z,21.6
2017-11-18T04:06:05.276Z,21.6
2017-11-18T04:08:05.021Z,21.6
2017-11-18T04:10:04.791Z,21.5
2017-11-18T04:12:05.503Z,21.5
2017-11-18T04:14:05.227Z,21.6
2017-11-18T04:16:05.066Z,21.6
2017-11-18T04:18:04.984Z,21.6
2017-11-18T04:20:09.776Z,21.5
2017-11-18T04:22:05.525Z,21.5
2017-11-18T04:24:05.206Z,21.5
2017-11-18T04:26:05.112Z,21.5
2017-11-18T04:28:05.001Z,21.5
2017-11-18T04:30:05.289Z,21.5
2017-11-18T04:32:05.016Z,21.5
2017-11-18T04:34:04.760Z,21.5
2017-11-18T04:36:05.010Z,21.5
2017-11-18T04:38:07.349Z,21.5
2017-11-18T04:40:05.158Z,21.5
2017-11-18T04:42:04.909Z,21.5
2017-11-18T04:44:07.178Z,21.5
2017-11-18T04:46:07.455Z,21.5
2017-11-18T04:48:05.181Z,21.5
2017-11-18T04:50:10.524Z,21.5
2017-11-18T04:52:05.266Z,21.5
2017-11-18T04:54:05.029Z,21.5
2017-11-18T04:56:04.754Z,21.5
2017-11-18T04:58:05.497Z,21.5
2017-11-18T05:00:10.340Z,21.5
2017-11-18T05:02:05.596Z,21.5
2017-11-18T05:04:07.844Z,21.5
2017-11-18T05:06:08.157Z,21.5
2017-11-18T05:08:07.474Z,21.5
2017-11-18T05:10:05.235Z,21.5
2017-11-18T05:12:07.579Z,21.5
2017-11-18T05:14:04.754Z,21.5
2017-11-18T05:16:05.528Z,21.5
2017-11-18T05:18:05.484Z,21.5
2017-11-18T05:20:05.191Z,21.5
2017-11-18T05:22:07.504Z,21.5
2017-11-18T05:24:05.238Z,21.5
2017-11-18T05:26:10.029Z,21.5
2017-11-18T05:28:07.273Z,21.5
2017-11-18T05:30:10.119Z,21.5
2017-11-18T05:32:09.917Z,21.5
2017-11-18T05:34:04.703Z,21.5
2017-11-18T05:36:07.965Z,21.5
2017-11-18T05:38:10.328Z,21.5
2017-11-18T05:40:07.643Z,21.5
2017-11-18T05:42:05.048Z,21.5
2017-11-18T05:44:07.548Z,21.5
2017-11-18T05:46:05.316Z,21.5
2017-11-18T05:48:13.482Z,21.5
2017-11-18T05:50:05.326Z,21.5
2017-11-18T05:52:05.068Z,21.5
2017-11-18T05:54:04.831Z,21.5
2017-11-18T05:56:05.544Z,21.5
2017-11-18T05:58:05.276Z,21.5
2017-11-18T06:00:12.627Z,21.5
2017-11-18T06:02:04.900Z,21.5
2017-11-18T06:04:05.746Z,21.5
2017-11-18T06:06:10.616Z,21.5
2017-11-18T06:08:07.873Z,21.5
2017-11-18T06:10:05.697Z,21.4
2017-11-18T06:12:05.471Z,21.5
2017-11-18T06:14:04.895Z,21.4
2017-11-18T06:16:04.652Z,21.5
2017-11-18T06:18:10.669Z,21.4
2017-11-18T06:20:07.945Z,21.4
2017-11-18T06:22:09.746Z,21.4
2017-11-18T06:24:05.477Z,21.4
2017-11-18T06:26:10.373Z,21.4
2017-11-18T06:28:05.129Z,21.5
2017-11-18T06:30:04.844Z,21.5
2017-11-18T06:32:08.074Z,21.4
2017-11-18T06:34:05.294Z,21.5
2017-11-18T06:36:07.628Z,21.4
2017-11-18T06:38:07.871Z,21.4
2017-11-18T06:40:05.160Z,21.4
2017-11-18T06:42:05.361Z,21.4
2017-11-18T06:44:05.097Z,21.4
2017-11-18T06:46:04.881Z,21.4
2017-11-18T06:48:05.234Z,21.4
2017-11-18T06:50:05.058Z,21.4
2017-11-18T06:52:07.364Z,21.4
2017-11-18T06:54:10.187Z,21.4
2017-11-18T06:56:05.012Z,21.4
2017-11-18T06:58:10.395Z,21.4
2017-11-18T07:00:05.170Z,21.4
2017-11-18T07:02:04.923Z,21.4
2017-11-18T07:04:04.762Z,21.4
2017-11-18T07:06:15.625Z,21.4
2017-11-18T07:08:04.964Z,21.4
2017-11-18T07:10:04.703Z,21.4
2017-11-18T07:12:10.039Z,21.4
2017-11-18T07:14:04.757Z,21.4
2017-11-18T07:16:05.503Z,21.4
2017-11-18T07:18:10.541Z,21.4
2017-11-18T07:20:05.350Z,21.4
2017-11-18T07:22:12.665Z,21.4
2017-11-18T07:24:05.442Z,21.4
2017-11-18T07:26:07.701Z,21.4
2017-11-18T07:28:05.510Z,21.4
2017-11-18T07:30:07.881Z,21.4
2017-11-18T07:32:05.609Z,21.4
2017-11-18T07:34:05.316Z,21.4
2017-11-18T07:36:05.009Z,21.4
2017-11-18T07:38:04.805Z,21.4
2017-11-18T07:40:05.718Z,21.4
2017-11-18T07:42:05.723Z,21.4
2017-11-18T07:44:05.191Z,21.4
2017-11-18T07:46:12.521Z,21.4
2017-11-18T07:48:05.238Z,21.4
2017-11-18T07:50:05.498Z,21.4
2017-11-18T07:52:05.258Z,21.4
2017-11-18T07:54:10.066Z,21.4
2017-11-18T07:56:07.333Z,21.4
2017-11-18T07:58:12.653Z,21.4
2017-11-18T08:00:05.487Z,21.4
2017-11-18T08:02:05.256Z,21.4
2017-11-18T08:04:04.983Z,21.4
2017-11-18T08:06:04.717Z,21.4
2017-11-18T08:08:05.451Z,21.4
2017-11-18T08:10:05.225Z,21.4
2017-11-18T08:12:07.623Z,21.4
2017-11-18T08:14:04.857Z,21.4
2017-11-18T08:16:05.619Z,21.4
2017-11-18T08:18:05.669Z,21.4
2017-11-18T08:20:05.433Z,21.4
2017-11-18T08:22:07.688Z,21.4
2017-11-18T08:24:05.407Z,21.4
2017-11-18T08:26:05.044Z,21.4
2017-11-18T08:28:04.797Z,21.4
2017-11-18T08:30:10.589Z,21.4
2017-11-18T08:32:07.879Z,21.4
2017-11-18T08:34:05.311Z,21.4
2017-11-18T08:36:05.600Z,21.4
2017-11-18T08:38:05.496Z,21.4
2017-11-18T08:40:05.264Z,21.4
2017-11-18T08:42:05.566Z,21.4
2017-11-18T08:44:05.341Z,21.4
2017-11-18T08:46:05.101Z,21.4
2017-11-18T08:48:04.862Z,21.4
2017-11-18T08:50:05.568Z,21.4
2017-11-18T08:52:07.851Z,21.4
2017-11-18T08:54:08.107Z,21.3
2017-11-18T08:56:07.396Z,21.4
2017-11-18T08:58:05.138Z,21.4
2017-11-18T09:00:04.879Z,21.4
2017-11-18T09:02:08.120Z,21.4
2017-11-18T09:04:04.833Z,21.4
2017-11-18T09:06:05.603Z,21.3
2017-11-18T09:08:07.405Z,21.3
2017-11-18T09:10:05.345Z,21.4
2017-11-18T09:12:05.568Z,21.4
2017-11-18T09:14:07.833Z,21.3
2017-11-18T09:16:05.582Z,21.4
2017-11-18T09:18:05.037Z,21.4
2017-11-18T09:20:07.350Z,21.3
2017-11-18T09:22:05.111Z,21.3
2017-11-18T09:24:07.390Z,21.3
2017-11-18T09:26:05.132Z,21.4
2017-11-18T09:28:04.940Z,21.3
2017-11-18T09:30:04.673Z,21.3
2017-11-18T09:32:04.917Z,21.3
2017-11-18T09:34:05.176Z,21.4
2017-11-18T09:36:10.225Z,21.4
2017-11-18T09:38:05.492Z,21.4
2017-11-18T09:40:05.256Z,21.4
2017-11-18T09:42:05.592Z,21.4
2017-11-18T09:44:08.844Z,21.4
2017-11-18T09:46:05.068Z,21.4
2017-11-18T09:48:07.364Z,21.4
2017-11-18T09:50:07.662Z,21.4
2017-11-18T09:52:06.289Z,21.4
2017-11-18T09:54:05.263Z,21.4
2017-11-18T09:56:07.828Z,21.4
2017-11-18T09:58:04.893Z,21.4
2017-11-18T10:00:08.101Z,21.4
2017-11-18T10:02:05.301Z,21.4
2017-11-18T10:04:04.945Z,21.4
2017-11-18T10:06:17.389Z,21.4
2017-11-18T10:08:05.517Z,21.4
2017-11-18T10:10:05.667Z,21.4
2017-11-18T10:12:05.103Z,21.4
2017-11-18T10:14:04.862Z,21.4
2017-11-18T10:16:05.550Z,21.4
2017-11-18T10:18:05.401Z,21.4
2017-11-18T10:20:05.118Z,21.4
2017-11-18T10:22:04.856Z,21.4
2017-11-18T10:24:09.757Z,21.4
2017-11-18T10:26:07.112Z,21.4
2017-11-18T10:28:07.430Z,21.4
2017-11-18T10:30:05.168Z,21.4
2017-11-18T10:32:04.894Z,21.4
2017-11-18T10:34:07.696Z,21.4
2017-11-18T10:36:08.666Z,21.4
2017-11-18T10:38:05.015Z,21.4
2017-11-18T10:40:05.283Z,21.4
2017-11-18T10:42:15.163Z,21.4
2017-11-18T10:44:08.062Z,21.4
2017-11-18T10:46:04.817Z,21.4
2017-11-18T10:48:04.733Z,21.4
2017-11-18T10:50:05.566Z,21.4
2017-11-18T10:52:10.447Z,21.4
2017-11-18T10:54:15.716Z,21.4
2017-11-18T10:56:06.496Z,21.4
2017-11-18T10:58:10.270Z,21.4
2017-11-18T11:00:04.984Z,21.4
2017-11-18T11:02:04.925Z,21.4
2017-11-18T11:04:04.897Z,21.4
2017-11-18T11:06:04.617Z,21.4
2017-11-18T11:08:05.746Z,21.4
2017-11-18T11:10:04.756Z,21.4
2017-11-18T11:12:05.420Z,21.4
2017-11-18T11:14:04.976Z,21.4
2017-11-18T11:16:04.913Z,21.4
2017-11-18T11:18:04.687Z,21.4
2017-11-18T11:20:05.653Z,21.4
2017-11-18T11:22:05.458Z,21.4
2017-11-18T11:24:05.423Z,21.5
2017-11-18T11:26:05.363Z,21.5
2017-11-18T11:28:10.569Z,21.4
2017-11-18T11:30:05.068Z,21.4
2017-11-18T11:32:14.630Z,21.5
2017-11-18T11:34:10.244Z,21.5
2017-11-18T11:36:07.715Z,21.5
2017-11-18T11:38:05.281Z,21.5
2017-11-18T11:40:05.020Z,21.5
2017-11-18T11:42:05.066Z,21.5
2017-11-18T11:44:05.013Z,21.5
2017-11-18T11:46:10.944Z,21.5
2017-11-18T11:48:04.687Z,21.5
2017-11-18T11:50:05.734Z,21.5
2017-11-18T11:52:05.163Z,21.5
2017-11-18T11:54:05.477Z,21.5
2017-11-18T11:56:07.767Z,21.5
2017-11-18T11:58:13.098Z,21.5
2017-11-18T12:00:04.961Z,21.5
2017-11-18T12:02:04.698Z,21.5
2017-11-18T12:04:05.434Z,21.5
2017-11-18T12:06:05.422Z,21.5
2017-11-18T12:08:05.577Z,21.5
2017-11-18T12:10:05.286Z,21.5
2017-11-18T12:12:05.015Z,21.5
2017-11-18T12:14:07.287Z,21.5
2017-11-18T12:16:08.338Z,21.5
2017-11-18T12:18:05.393Z,21.5
2017-11-18T12:20:05.162Z,21.5
2017-11-18T12:22:07.436Z,21.5
2017-11-18T12:24:07.917Z,21.6
2017-11-18T12:26:04.720Z,21.5
2017-11-18T12:28:10.472Z,21.5
2017-11-18T12:30:05.205Z,21.5
2017-11-18T12:32:04.930Z,21.5
2017-11-18T12:34:04.728Z,21.5
2017-11-18T12:36:05.456Z,21.4
2017-11-18T12:38:04.687Z,21.3
2017-11-18T12:40:05.392Z,21.3
2017-11-18T12:42:04.742Z,21.3
2017-11-18T12:44:05.454Z,21.2
2017-11-18T12:46:05.198Z,21.2
2017-11-18T12:48:07.736Z,21.2
2017-11-18T12:50:05.436Z,21.2
2017-11-18T12:52:05.135Z,21.2
2017-11-18T12:54:04.836Z,21.1
2017-11-18T12:56:07.687Z,21.1
2017-11-18T12:58:05.435Z,21
2017-11-18T13:00:05.158Z,21
2017-11-18T13:02:04.865Z,21
2017-11-18T13:04:05.746Z,21
2017-11-18T13:06:05.683Z,20.9
2017-11-18T13:08:04.947Z,20.9
2017-11-18T13:10:04.787Z,20.8
2017-11-18T13:12:06.484Z,20.9
2017-11-18T13:14:05.217Z,20.9
2017-11-18T13:16:13.091Z,20.9
2017-11-18T13:18:05.053Z,20.9
2017-11-18T13:20:04.777Z,21
2017-11-18T13:22:08.134Z,21
2017-11-18T13:24:12.985Z,21
2017-11-18T13:26:04.696Z,21
2017-11-18T13:28:05.417Z,21
2017-11-18T13:30:05.254Z,21.1
2017-11-18T13:32:04.963Z,21.1
2017-11-18T13:34:04.878Z,21.1
2017-11-18T13:36:04.629Z,21.1
2017-11-18T13:38:05.456Z,21.1
2017-11-18T13:40:07.313Z,21.1
2017-11-18T13:42:04.661Z,21.1
2017-11-18T13:44:09.996Z,21.1
2017-11-18T13:46:19.732Z,21.1
2017-11-18T13:48:05.644Z,21.1
2017-11-18T13:50:04.831Z,21.1
2017-11-18T13:52:07.632Z,21.1
2017-11-18T13:54:07.895Z,21.2
2017-11-18T13:56:05.648Z,21.1
2017-11-18T13:58:05.109Z,21.1
2017-11-18T14:00:04.810Z,21.1
2017-11-18T14:02:05.577Z,21.1
2017-11-18T14:04:05.318Z,21.1
2017-11-18T14:06:05.130Z,21.1
2017-11-18T14:08:07.938Z,21.1
2017-11-18T14:10:07.219Z,21.1
2017-11-18T14:12:07.507Z,21.1
2017-11-18T14:14:05.238Z,21.1
2017-11-18T14:16:15.084Z,21.1
2017-11-18T14:18:07.592Z,21.1
2017-11-18T14:20:05.339Z,21.1
2017-11-18T14:22:05.604Z,21.1
2017-11-18T14:24:04.960Z,21.1
2017-11-18T14:26:07.185Z,21.1
2017-11-18T14:28:04.893Z,21.1
2017-11-18T14:30:05.592Z,21.1
2017-11-18T14:32:05.251Z,21.1
2017-11-18T14:34:05.528Z,21
2017-11-18T14:36:05.234Z,21.1
2017-11-18T14:38:05.027Z,21
2017-11-18T14:40:04.858Z,21.1
2017-11-18T14:42:05.606Z,21.1
2017-11-18T14:44:05.270Z,21
2017-11-18T14:46:07.564Z,21.1
2017-11-18T14:48:05.270Z,21
2017-11-18T14:50:10.562Z,21.1
2017-11-18T14:52:07.846Z,21
2017-11-18T14:54:04.668Z,21
2017-11-18T14:56:05.626Z,21
2017-11-18T14:58:05.479Z,21
2017-11-18T15:00:05.238Z,21
2017-11-18T15:02:07.479Z,21
2017-11-18T15:04:05.250Z,21
2017-11-18T15:06:05.034Z,21
2017-11-18T15:08:04.782Z,21
2017-11-18T15:10:05.557Z,21
2017-11-18T15:12:10.344Z,21
2017-11-18T15:14:04.602Z,21
2017-11-18T15:16:05.347Z,21
2017-11-18T15:18:05.283Z,21.1
2017-11-18T15:20:05.067Z,21
2017-11-18T15:22:12.511Z,21
2017-11-18T15:24:04.782Z,21
2017-11-18T15:26:05.492Z,21.1
2017-11-18T15:28:05.369Z,21
2017-11-18T15:30:05.126Z,21
2017-11-18T15:32:04.874Z,21.1
2017-11-18T15:34:08.111Z,21.1
2017-11-18T15:36:10.402Z,21.1
2017-11-18T15:38:04.850Z,21.1
2017-11-18T15:40:05.551Z,21.1
2017-11-18T15:42:05.244Z,21.1
2017-11-18T15:44:05.010Z,21.1
2017-11-18T15:46:04.809Z,21.1
2017-11-18T15:48:05.730Z,21.1
2017-11-18T15:50:05.458Z,21.1
2017-11-18T15:52:07.767Z,21.1
2017-11-18T15:54:05.603Z,21
2017-11-18T15:56:07.876Z,21.1
2017-11-18T15:58:07.282Z,21.1
2017-11-18T16:00:07.757Z,21
2017-11-18T16:02:08.029Z,21.1
2017-11-18T16:04:04.800Z,21
2017-11-18T16:06:05.587Z,21
2017-11-18T16:08:05.280Z,21.1
2017-11-18T16:10:05.505Z,21
2017-11-18T16:12:05.306Z,21
2017-11-18T16:14:05.011Z,21
2017-11-18T16:16:04.844Z,21
2017-11-18T16:18:07.259Z,20.9
2017-11-18T16:20:04.983Z,21
2017-11-18T16:22:04.715Z,21
2017-11-18T16:24:05.467Z,21
2017-11-18T16:26:05.262Z,20.9
2017-11-18T16:28:10.012Z,20.9
2017-11-18T16:30:04.744Z,21
2017-11-18T16:32:05.453Z,21
2017-11-18T16:34:04.782Z,21
2017-11-18T16:36:05.631Z,21
2017-11-18T16:38:04.936Z,21
2017-11-18T16:40:04.671Z,21
2017-11-18T16:42:05.409Z,20.9
2017-11-18T16:44:07.711Z,21
2017-11-18T16:46:05.481Z,21
2017-11-18T16:48:05.200Z,21
2017-11-18T16:50:10.514Z,20.9
2017-11-18T16:52:05.210Z,20.9
2017-11-18T16:54:07.469Z,20.9
2017-11-18T16:56:07.821Z,21
2017-11-18T16:58:05.573Z,21
2017-11-18T17:00:05.284Z,21
2017-11-18T17:02:07.586Z,21.1
2017-11-18T17:04:05.432Z,21.1
2017-11-18T17:06:10.261Z,21.1
2017-11-18T17:08:07.535Z,21.1
2017-11-18T17:10:05.305Z,21.1
2017-11-18T17:12:05.644Z,21.2
2017-11-18T17:14:07.987Z,21.2
2017-11-18T17:16:04.747Z,21.2
2017-11-18T17:18:04.690Z,21.2
2017-11-18T17:20:07.964Z,21.2
2017-11-18T17:22:05.684Z,21.2
2017-11-18T17:24:07.934Z,21.2
2017-11-18T17:26:04.642Z,21.2
2017-11-18T17:28:05.378Z,21.2
2017-11-18T17:30:07.667Z,21.2
2017-11-18T17:32:05.537Z,21.2
2017-11-18T17:34:05.270Z,21.2
2017-11-18T17:36:05.004Z,21.2
2017-11-18T17:38:04.976Z,21.2
2017-11-18T17:40:04.883Z,21.2
2017-11-18T17:42:04.688Z,21.2
2017-11-18T17:44:05.476Z,21.2
2017-11-18T17:46:10.568Z,21.2
2017-11-18T17:48:05.248Z,21.2
2017-11-18T17:50:07.506Z,21.2
2017-11-18T17:52:05.267Z,21.2
2017-11-18T17:54:08.006Z,21.1
2017-11-18T17:56:04.708Z,21.1
2017-11-18T17:58:05.424Z,21.1
2017-11-18T18:00:04.686Z,21.1
2017-11-18T18:02:09.973Z,21.1
2017-11-18T18:04:04.810Z,21.1
2017-11-18T18:06:05.176Z,21.1
2017-11-18T18:08:04.989Z,21.1
2017-11-18T18:10:04.776Z,21.1
2017-11-18T18:12:05.101Z,21.1
2017-11-18T18:14:07.987Z,21.1
2017-11-18T18:16:05.396Z,21
2017-11-18T18:18:05.398Z,21
2017-11-18T18:20:05.160Z,21.1
2017-11-18T18:22:09.981Z,21
2017-11-18T18:24:04.722Z,21
2017-11-18T18:26:05.497Z,21
2017-11-18T18:28:05.754Z,21
2017-11-18T18:30:05.195Z,21
2017-11-18T18:32:05.035Z,21.1
2017-11-18T18:34:05.155Z,21.1
2017-11-18T18:36:05.075Z,21.1
2017-11-18T18:38:09.885Z,21.1
2017-11-18T18:40:04.696Z,21
2017-11-18T18:42:05.439Z,21
2017-11-18T18:44:07.719Z,21.1
2017-11-18T18:46:05.557Z,21
2017-11-18T18:48:05.559Z,21
2017-11-18T18:50:07.820Z,21
2017-11-18T18:52:05.101Z,21
2017-11-18T18:54:07.372Z,21
2017-11-18T18:56:07.694Z,21.1
2017-11-18T18:58:05.457Z,21.1
2017-11-18T19:00:05.122Z,21.1
2017-11-18T19:02:04.878Z,21.1
2017-11-18T19:04:05.595Z,21.1
2017-11-18T19:06:05.408Z,21.1
2017-11-18T19:08:04.751Z,21
2017-11-18T19:10:05.620Z,21.1
2017-11-18T19:12:05.520Z,21.1
2017-11-18T19:14:07.786Z,21.1
2017-11-18T19:16:05.605Z,21.1
2017-11-18T19:18:15.657Z,21.1
2017-11-18T19:20:07.942Z,21.1
2017-11-18T19:22:04.797Z,21.1
2017-11-18T19:24:07.441Z,21.2
2017-11-18T19:26:07.719Z,21.2
2017-11-18T19:28:04.985Z,21.1
2017-11-18T19:30:04.730Z,21.2
2017-11-18T19:32:04.680Z,21.2
2017-11-18T19:34:05.461Z,21.2
2017-11-18T19:36:04.708Z,21.2
2017-11-18T19:38:05.442Z,21.2
2017-11-18T19:40:12.887Z,21.2
2017-11-18T19:42:05.620Z,21.2
2017-11-18T19:44:07.553Z,21.2
2017-11-18T19:46:05.293Z,21.2
2017-11-18T19:48:05.019Z,21.2
2017-11-18T19:50:07.847Z,21.2
2017-11-18T19:52:05.585Z,21.2
2017-11-18T19:54:05.434Z,21.2
2017-11-18T19:56:05.175Z,21.2
2017-11-18T19:58:07.428Z,21.2
2017-11-18T20:00:10.353Z,21.2
2017-11-18T20:02:05.087Z,21.2
2017-11-18T20:04:04.826Z,21.2
2017-11-18T20:06:08.089Z,21.2
2017-11-18T20:08:04.829Z,21.2
2017-11-18T20:10:05.573Z,21.2
2017-11-18T20:12:05.369Z,21.2
2017-11-18T20:14:12.236Z,21.2
2017-11-18T20:16:13.169Z,21.2
2017-11-18T20:18:07.278Z,21.2
2017-11-18T20:20:05.296Z,21.2
2017-11-18T20:22:05.518Z,21.2
2017-11-18T20:24:05.613Z,21.2
2017-11-18T20:26:10.351Z,21.2
2017-11-18T20:28:09.849Z,21.2
2017-11-18T20:30:05.056Z,21.2
2017-11-18T20:32:04.984Z,21.2
2017-11-18T20:34:04.700Z,21.2
2017-11-18T20:36:05.448Z,21.2
2017-11-18T20:38:05.203Z,21.2
2017-11-18T20:40:04.994Z,21.2
2017-11-18T20:42:04.770Z,21.2
2017-11-18T20:44:05.477Z,21.2
2017-11-18T20:46:04.715Z,21.2
2017-11-18T20:48:05.455Z,21.2
2017-11-18T20:50:05.129Z,21.2
2017-11-18T20:52:05.456Z,21.2
2017-11-18T20:54:05.174Z,21.2
2017-11-18T20:56:04.865Z,21.2
2017-11-18T20:58:05.610Z,21.2
2017-11-18T21:00:10.399Z,21.2
2017-11-18T21:02:05.106Z,21.2
2017-11-18T21:04:09.860Z,21.2
2017-11-18T21:06:05.551Z,21.2
2017-11-18T21:08:05.251Z,21.2
2017-11-18T21:10:05.498Z,21.2
2017-11-18T21:12:04.741Z,21.2
2017-11-18T21:14:05.460Z,21.2
2017-11-18T21:16:05.234Z,21.2
2017-11-18T21:18:04.768Z,21.2
2017-11-18T21:20:05.029Z,21.2
2017-11-18T21:22:04.816Z,21.2
2017-11-18T21:24:05.557Z,21.2
2017-11-18T21:26:05.298Z,21.2
2017-11-18T21:28:05.141Z,21.2
2017-11-18T21:30:04.879Z,21.2
2017-11-18T21:32:05.546Z,21.2
2017-11-18T21:34:07.792Z,21.2
2017-11-18T21:36:05.481Z,21.2
2017-11-18T21:38:05.319Z,21.2
2017-11-18T21:40:05.033Z,21.2
2017-11-18T21:42:09.773Z,21.2
2017-11-18T21:44:05.602Z,21.2
2017-11-18T21:46:09.834Z,21.2
2017-11-18T21:48:05.540Z,21.2
2017-11-18T21:50:05.257Z,21.3
2017-11-18T21:52:07.542Z,21.2
2017-11-18T21:54:05.394Z,21.2
2017-11-18T21:56:05.108Z,21.2
2017-11-18T21:58:10.103Z,21.3
2017-11-18T22:00:04.863Z,21.3
2017-11-18T22:02:05.579Z,21.3
2017-11-18T22:04:05.403Z,21.3
2017-11-18T22:06:05.126Z,21.2
2017-11-18T22:08:04.977Z,21.2
2017-11-18T22:10:07.434Z,21.2
2017-11-18T22:12:05.283Z,21.2
2017-11-18T22:14:05.587Z,21.2
2017-11-18T22:16:05.353Z,21.2
2017-11-18T22:18:04.881Z,21.3
2017-11-18T22:20:07.181Z,21.2
2017-11-18T22:22:04.937Z,21.2
2017-11-18T22:24:04.600Z,21.2
2017-11-18T22:26:04.887Z,21.2
2017-11-18T22:28:05.604Z,21.2
2017-11-18T22:30:07.884Z,21.2
2017-11-18T22:32:08.088Z,21.2
2017-11-18T22:34:07.421Z,21.2
2017-11-18T22:36:05.129Z,21.2
2017-11-18T22:38:04.830Z,21.2
2017-11-18T22:40:05.150Z,21.2
2017-11-18T22:42:09.905Z,21.2
2017-11-18T22:44:04.663Z,21.2
2017-11-18T22:46:05.668Z,21.2
2017-11-18T22:48:07.906Z,21.2
2017-11-18T22:50:04.871Z,21.2
2017-11-18T22:52:05.601Z,21.2
2017-11-18T22:54:10.434Z,21.2
2017-11-18T22:56:04.702Z,21.2
2017-11-18T22:58:05.420Z,21.2
2017-11-18T23:00:04.897Z,21.2
2017-11-18T23:02:09.711Z,21.2
2017-11-18T23:04:05.430Z,21.2
2017-11-18T23:06:05.186Z,21.2
2017-11-18T23:08:04.911Z,21.2
2017-11-18T23:10:09.684Z,21.2
2017-11-18T23:12:05.397Z,21.2
2017-11-18T23:14:05.112Z,21.2
2017-11-18T23:16:05.449Z,21.2
2017-11-18T23:18:05.354Z,21.1
2017-11-18T23:20:05.054Z,21.1
2017-11-18T23:22:04.861Z,21.1
2017-11-18T23:24:08.093Z,21.1
2017-11-18T23:26:07.439Z,21.1
2017-11-18T23:28:05.280Z,21.1
2017-11-18T23:30:05.067Z,21.2
2017-11-18T23:32:10.125Z,21.1
2017-11-18T23:34:07.412Z,21.1
2017-11-18T23:36:05.128Z,21.1
2017-11-18T23:38:04.878Z,21.2
2017-11-18T23:40:07.733Z,21.1
2017-11-18T23:42:05.411Z,21.1
2017-11-18T23:44:05.104Z,21.1
2017-11-18T23:46:04.846Z,21.2
2017-11-18T23:48:05.575Z,21.1
2017-11-18T23:50:05.324Z,21.2
2017-11-18T23:52:05.113Z,21.1
2017-11-18T23:54:05.437Z,21.1
2017-11-18T23:56:07.709Z,21.1
2017-11-18T23:58:10.552Z,21.1
